createdAt,value
2018-06-12T00:00:01.185Z,76.60
2018-06-12T00:02:29.596Z,76.60
2018-06-12T00:04:58.038Z,77.00
2018-06-12T00:07:26.494Z,77.00
2018-06-12T00:09:55.026Z,77.00
2018-06-12T00:12:23.556Z,77.10
2018-06-12T00:14:52.006Z,77.50
2018-06-12T00:17:20.438Z,77.80
2018-06-12T00:22:17.281Z,78.00
2018-06-12T00:24:45.698Z,78.00
2018-06-12T00:27:14.145Z,77.90
2018-06-12T00:29:42.626Z,78.00
2018-06-12T00:32:11.070Z,77.80
2018-06-12T00:34:39.522Z,78.10
2018-06-12T00:37:07.990Z,78.00
2018-06-12T00:39:36.419Z,78.40
2018-06-12T00:42:04.869Z,78.30
2018-06-12T00:47:01.722Z,78.40
2018-06-12T00:49:30.143Z,78.30
2018-06-12T00:51:58.623Z,78.30
2018-06-12T00:54:27.106Z,78.50
2018-06-12T00:57:06.394Z,78.70
2018-06-12T00:59:34.853Z,78.80
2018-06-12T01:02:03.410Z,78.60
2018-06-12T01:04:32.090Z,78.50
2018-06-12T01:07:00.633Z,78.60
2018-06-12T01:09:29.114Z,78.80
2018-06-12T01:11:57.578Z,78.80
2018-06-12T01:14:26.006Z,78.10
2018-06-12T01:16:54.445Z,78.00
2018-06-12T01:19:22.946Z,77.90
2018-06-12T01:21:51.397Z,78.20
2018-06-12T01:24:20.210Z,78.30
2018-06-12T01:26:48.803Z,78.40
2018-06-12T01:29:17.736Z,78.20
2018-06-12T01:31:47.029Z,78.40
2018-06-12T01:34:15.775Z,78.80
2018-06-12T01:36:44.227Z,78.90
2018-06-12T01:39:12.653Z,78.90
2018-06-12T01:41:41.125Z,79.10
2018-06-12T01:44:09.557Z,78.70
2018-06-12T01:46:38.410Z,79.40
2018-06-12T01:49:07.003Z,79.20
2018-06-12T01:51:35.442Z,79.60
2018-06-12T01:54:03.910Z,79.60
2018-06-12T01:56:32.370Z,79.50
2018-06-12T01:59:00.811Z,79.60
2018-06-12T02:01:29.358Z,79.70
2018-06-12T02:03:57.808Z,79.80
2018-06-12T02:06:26.234Z,79.40
2018-06-12T02:08:54.782Z,79.50
2018-06-12T02:13:51.404Z,79.50
2018-06-12T02:16:20.032Z,79.30
2018-06-12T02:18:48.518Z,79.30
2018-06-12T02:21:16.945Z,78.80
2018-06-12T02:23:45.496Z,78.80
2018-06-12T02:26:14.110Z,78.80
2018-06-12T02:28:42.522Z,79.00
2018-06-12T02:31:11.054Z,78.80
2018-06-12T02:33:39.550Z,79.00
2018-06-12T02:36:08.074Z,79.00
2018-06-12T02:38:36.485Z,79.30
2018-06-12T02:41:04.938Z,79.10
2018-06-12T02:43:33.350Z,79.20
2018-06-12T02:48:29.958Z,79.40
2018-06-12T02:50:58.409Z,79.60
2018-06-12T02:53:26.850Z,79.80
2018-06-12T02:55:55.328Z,79.80
2018-06-12T02:58:23.744Z,80.00
2018-06-12T03:00:52.162Z,80.10
2018-06-12T03:03:20.679Z,80.10
2018-06-12T03:05:49.144Z,80.60
2018-06-12T03:08:17.562Z,80.50
2018-06-12T03:10:46.014Z,80.70
2018-06-12T03:13:14.439Z,80.70
2018-06-12T03:15:42.858Z,80.80
2018-06-12T03:18:11.297Z,80.90
2018-06-12T03:20:44.762Z,81.00
2018-06-12T03:23:13.304Z,81.10
2018-06-12T03:25:41.843Z,81.00
2018-06-12T03:28:10.482Z,81.50
2018-06-12T03:30:39.006Z,81.40
2018-06-12T03:33:07.493Z,81.70
2018-06-12T03:35:35.923Z,82.00
2018-06-12T03:38:04.573Z,81.60
2018-06-12T03:40:33.015Z,81.70
2018-06-12T03:43:01.910Z,81.80
2018-06-12T03:45:30.385Z,81.80
2018-06-12T03:47:58.842Z,82.00
2018-06-12T03:50:27.278Z,82.10
2018-06-12T03:52:55.762Z,82.00
2018-06-12T03:55:24.190Z,82.00
2018-06-12T03:57:52.750Z,81.80
2018-06-12T04:02:49.480Z,81.70
2018-06-12T04:05:17.903Z,81.90
2018-06-12T04:07:46.428Z,81.80
2018-06-12T04:10:14.866Z,81.60
2018-06-12T04:12:43.436Z,81.50
2018-06-12T04:15:11.894Z,81.50
2018-06-12T04:17:40.330Z,81.30
2018-06-12T04:20:08.776Z,81.40
2018-06-12T04:22:37.256Z,81.40
2018-06-12T04:25:05.843Z,81.30
2018-06-12T04:27:34.273Z,81.10
2018-06-12T04:30:02.779Z,81.40
2018-06-12T04:32:31.217Z,80.80
2018-06-12T04:34:59.661Z,80.50
2018-06-12T04:37:28.149Z,80.20
2018-06-12T04:39:56.690Z,80.00
2018-06-12T04:42:25.121Z,79.70
2018-06-12T04:44:53.614Z,79.60
2018-06-12T04:47:22.056Z,79.50
2018-06-12T04:49:50.482Z,79.10
2018-06-12T04:52:19.222Z,78.60
2018-06-12T04:54:47.771Z,78.30
2018-06-12T04:57:16.191Z,78.00
2018-06-12T04:59:44.630Z,77.90
2018-06-12T05:02:13.089Z,77.80
2018-06-12T05:07:09.709Z,77.00
2018-06-12T05:09:38.197Z,77.10
2018-06-12T05:12:07.034Z,77.20
2018-06-12T05:14:35.642Z,77.10
2018-06-12T05:17:04.062Z,77.10
2018-06-12T05:19:32.498Z,77.30
2018-06-12T05:22:00.954Z,77.30
2018-06-12T05:24:29.485Z,77.80
2018-06-12T05:26:58.022Z,77.30
2018-06-12T05:29:26.510Z,77.30
2018-06-12T05:31:55.074Z,77.10
2018-06-12T05:34:23.512Z,77.30
2018-06-12T05:36:51.982Z,77.00
2018-06-12T05:41:48.534Z,76.40
2018-06-12T05:44:17.104Z,76.40
2018-06-12T05:46:45.533Z,76.80
2018-06-12T05:49:13.973Z,76.50
2018-06-12T05:51:42.443Z,76.70
2018-06-12T05:54:10.886Z,76.40
2018-06-12T05:56:39.442Z,76.40
2018-06-12T05:59:09.042Z,76.10
2018-06-12T06:01:37.523Z,76.60
2018-06-12T06:04:06.114Z,76.10
2018-06-12T06:06:34.638Z,76.30
2018-06-12T06:09:03.274Z,76.30
2018-06-12T06:11:31.754Z,76.10
2018-06-12T06:14:00.845Z,76.20
2018-06-12T06:16:29.410Z,76.40
2018-06-12T06:18:57.867Z,76.30
2018-06-12T06:21:26.320Z,75.80
2018-06-12T06:23:54.749Z,75.00
2018-06-12T06:26:23.186Z,74.60
2018-06-12T06:28:51.670Z,75.20
2018-06-12T06:31:20.923Z,75.50
2018-06-12T06:33:49.399Z,75.20
2018-06-12T06:36:18.008Z,75.10
2018-06-12T06:38:46.663Z,75.20
2018-06-12T06:41:15.117Z,75.40
2018-06-12T06:43:43.604Z,75.60
2018-06-12T06:46:12.191Z,76.00
2018-06-12T06:48:40.629Z,76.00
2018-06-12T06:51:09.126Z,75.50
2018-06-12T06:53:37.578Z,75.20
2018-06-12T06:56:06.096Z,75.10
2018-06-12T06:58:34.622Z,74.70
2018-06-12T07:01:03.101Z,74.60
2018-06-12T07:03:31.538Z,73.60
2018-06-12T07:06:00.022Z,73.20
2018-06-12T07:08:28.618Z,73.00
2018-06-12T07:10:57.163Z,72.80
2018-06-12T07:13:25.643Z,72.80
2018-06-12T07:15:54.331Z,72.80
2018-06-12T07:18:22.762Z,72.70
2018-06-12T07:21:06.832Z,72.80
2018-06-12T07:23:35.382Z,73.10
2018-06-12T07:28:32.326Z,72.70
2018-06-12T07:31:00.752Z,72.90
2018-06-12T07:33:29.184Z,73.50
2018-06-12T07:35:57.998Z,73.40
2018-06-12T07:38:26.494Z,72.50
2018-06-12T07:40:54.930Z,72.20
2018-06-12T07:43:23.447Z,72.00
2018-06-12T07:45:52.060Z,71.70
2018-06-12T07:48:21.230Z,71.60
2018-06-12T07:50:49.717Z,71.60
2018-06-12T07:53:18.277Z,71.10
2018-06-12T07:55:47.002Z,71.10
2018-06-12T07:58:15.462Z,71.30
2018-06-12T08:00:43.892Z,70.80
2018-06-12T08:03:12.468Z,70.60
2018-06-12T08:05:41.231Z,70.60
2018-06-12T08:10:37.826Z,71.50
2018-06-12T08:13:06.814Z,71.60
2018-06-12T08:15:35.331Z,70.90
2018-06-12T08:18:03.867Z,70.90
2018-06-12T08:20:33.015Z,71.30
2018-06-12T08:23:01.472Z,70.50
2018-06-12T08:25:30.039Z,70.60
2018-06-12T08:27:59.970Z,71.00
2018-06-12T08:30:28.714Z,70.70
2018-06-12T08:32:57.377Z,70.70
2018-06-12T08:35:26.022Z,70.30
2018-06-12T08:37:54.559Z,69.80
2018-06-12T08:40:23.126Z,70.00
2018-06-12T08:42:51.823Z,70.10
2018-06-12T08:45:20.323Z,69.10
2018-06-12T08:47:48.800Z,68.60
2018-06-12T08:50:17.538Z,69.30
2018-06-12T08:52:46.133Z,68.80
2018-06-12T08:55:14.857Z,68.30
2018-06-12T08:57:43.426Z,68.10
2018-06-12T09:00:11.871Z,68.50
2018-06-12T09:02:40.476Z,68.10
2018-06-12T09:05:09.044Z,67.20
2018-06-12T09:07:37.562Z,67.30
2018-06-12T09:10:06.285Z,66.10
2018-06-12T09:12:39.690Z,66.10
2018-06-12T09:15:08.337Z,65.70
2018-06-12T09:17:36.908Z,65.70
2018-06-12T09:20:05.642Z,65.00
2018-06-12T09:22:34.086Z,64.80
2018-06-12T09:25:02.573Z,64.10
2018-06-12T09:27:35.467Z,63.00
2018-06-12T09:30:05.194Z,62.90
2018-06-12T09:32:33.644Z,62.10
2018-06-12T09:35:02.286Z,62.00
2018-06-12T09:37:30.730Z,62.00
2018-06-12T09:39:59.200Z,61.70
2018-06-12T09:42:27.695Z,61.70
2018-06-12T09:44:56.147Z,61.10
2018-06-12T09:47:24.802Z,61.30
2018-06-12T09:51:22.495Z,61.30
2018-06-12T09:53:50.937Z,61.00
2018-06-12T09:56:19.535Z,60.80
2018-06-12T09:58:48.142Z,61.10
2018-06-12T10:01:19.330Z,61.70
2018-06-12T10:03:49.034Z,61.00
2018-06-12T10:06:17.637Z,61.00
2018-06-12T10:08:46.094Z,60.60
2018-06-12T10:11:14.606Z,60.40
2018-06-12T10:13:43.275Z,60.60
2018-06-12T10:16:11.747Z,60.10
2018-06-12T10:18:40.301Z,59.20
2018-06-12T10:21:08.889Z,59.30
2018-06-12T10:23:37.522Z,59.70
2018-06-12T10:26:06.388Z,58.80
2018-06-12T10:31:03.282Z,58.40
2018-06-12T10:33:33.326Z,58.80
2018-06-12T10:36:01.785Z,58.70
2018-06-12T10:38:30.208Z,58.00
2018-06-12T10:40:58.786Z,58.20
2018-06-12T10:43:27.222Z,58.30
2018-06-12T10:45:55.660Z,58.50
2018-06-12T10:48:24.155Z,58.80
2018-06-12T10:50:52.739Z,58.40
2018-06-12T10:53:21.237Z,57.00
2018-06-12T10:55:49.733Z,57.00
2018-06-12T10:58:18.172Z,57.30
2018-06-12T11:00:46.609Z,57.60
2018-06-12T11:03:15.137Z,57.20
2018-06-12T11:05:43.899Z,57.80
2018-06-12T11:08:12.345Z,58.00
2018-06-12T11:10:40.801Z,57.10
2018-06-12T11:13:09.228Z,57.60
2018-06-12T11:15:37.647Z,57.70
2018-06-12T11:18:06.427Z,58.30
2018-06-12T11:20:34.863Z,58.30
2018-06-12T11:23:03.414Z,58.30
2018-06-12T11:25:31.888Z,58.80
2018-06-12T11:28:00.439Z,58.50
2018-06-12T11:30:28.990Z,58.80
2018-06-12T11:32:57.469Z,58.20
2018-06-12T11:35:25.889Z,58.30
2018-06-12T11:37:54.334Z,58.00
2018-06-12T11:40:23.102Z,57.80
2018-06-12T11:42:52.789Z,58.10
2018-06-12T11:45:21.244Z,58.60
2018-06-12T11:47:49.712Z,58.50
2018-06-12T11:50:18.266Z,58.80
2018-06-12T11:52:46.678Z,59.30
2018-06-12T11:55:15.158Z,59.60
2018-06-12T12:00:11.842Z,60.00
2018-06-12T12:02:40.330Z,60.00
2018-06-12T12:05:08.799Z,59.60
2018-06-12T12:07:37.254Z,59.30
2018-06-12T12:10:05.789Z,59.10
2018-06-12T12:12:34.278Z,59.00
2018-06-12T12:15:02.959Z,59.10
2018-06-12T12:17:31.418Z,59.20
2018-06-12T12:19:59.957Z,59.40
2018-06-12T12:22:28.430Z,60.00
2018-06-12T12:24:56.918Z,60.10
2018-06-12T12:27:25.382Z,60.20
2018-06-12T12:36:38.061Z,58.20
2018-06-12T12:39:08.213Z,54.50
2018-06-12T12:46:33.284Z,52.90
2018-06-12T12:49:01.722Z,52.70
2018-06-12T12:51:30.302Z,52.80
2018-06-12T12:53:58.984Z,52.10
2018-06-12T12:56:27.652Z,52.50
2018-06-12T12:58:56.239Z,51.50
2018-06-12T13:01:24.784Z,51.50
2018-06-12T13:03:53.353Z,51.60
2018-06-12T13:06:21.850Z,52.50
2018-06-12T13:08:50.402Z,52.40
2018-06-12T13:11:18.832Z,52.60
2018-06-12T13:13:47.405Z,51.60
2018-06-12T13:18:44.015Z,51.70
2018-06-12T13:21:12.542Z,50.60
2018-06-12T13:26:09.210Z,50.80
2018-06-12T13:28:38.075Z,50.50
2018-06-12T13:31:06.503Z,50.80
2018-06-12T13:33:35.125Z,49.90
2018-06-12T13:36:03.787Z,50.20
2018-06-12T13:38:32.307Z,49.60
2018-06-12T13:41:00.789Z,49.00
2018-06-12T13:43:29.197Z,48.90
2018-06-12T13:45:57.742Z,49.00
2018-06-12T13:48:26.193Z,48.40
2018-06-12T13:50:54.663Z,47.90
2018-06-12T13:53:23.194Z,49.00
2018-06-12T13:55:51.618Z,50.00
2018-06-12T13:58:20.233Z,50.40
2018-06-12T14:00:48.670Z,50.40
2018-06-12T14:03:17.118Z,50.70
2018-06-12T14:05:45.610Z,51.20
2018-06-12T14:08:14.075Z,52.10
2018-06-12T14:10:42.503Z,53.10
2018-06-12T14:13:10.961Z,53.90
2018-06-12T14:15:39.399Z,53.20
2018-06-12T14:19:37.065Z,52.90
2018-06-12T14:22:05.910Z,53.80
2018-06-12T14:24:34.323Z,53.90
2018-06-12T14:27:02.878Z,52.90
2018-06-12T14:29:31.477Z,52.60
2018-06-12T14:31:59.902Z,52.80
2018-06-12T14:34:28.456Z,51.70
2018-06-12T14:36:56.877Z,52.80
2018-06-12T14:39:25.404Z,52.60
2018-06-12T14:41:53.887Z,52.70
2018-06-12T14:44:22.298Z,53.50
2018-06-12T14:46:50.719Z,52.60
2018-06-12T14:49:19.207Z,52.30
2018-06-12T14:51:47.625Z,52.80
2018-06-12T14:54:16.030Z,52.50
2018-06-12T14:59:12.655Z,53.80
2018-06-12T15:01:41.146Z,53.20
2018-06-12T15:04:09.672Z,53.20
2018-06-12T15:06:38.089Z,52.90
2018-06-12T15:09:07.658Z,52.60
2018-06-12T15:11:36.243Z,52.10
2018-06-12T15:14:04.810Z,52.30
2018-06-12T15:16:33.237Z,52.50
2018-06-12T15:19:01.766Z,53.40
2018-06-12T15:21:30.176Z,54.00
2018-06-12T15:23:58.854Z,53.60
2018-06-12T15:26:27.559Z,52.90
2018-06-12T15:28:55.986Z,52.60
2018-06-12T15:31:25.087Z,52.20
2018-06-12T15:33:53.697Z,51.70
2018-06-12T15:36:22.138Z,52.30
2018-06-12T15:38:50.602Z,52.40
2018-06-12T15:41:19.667Z,50.70
2018-06-12T15:43:48.153Z,50.60
2018-06-12T15:46:16.573Z,50.70
2018-06-12T15:48:45.176Z,49.50
2018-06-12T15:51:13.736Z,48.40
2018-06-12T15:53:42.265Z,48.60
2018-06-12T15:56:10.848Z,48.10
2018-06-12T15:58:39.272Z,47.20
2018-06-12T16:01:07.700Z,45.50
2018-06-12T16:03:36.178Z,44.00
2018-06-12T16:06:04.713Z,44.20
2018-06-12T16:08:33.121Z,43.70
2018-06-12T16:11:01.571Z,43.30
2018-06-12T16:14:59.162Z,41.40
2018-06-12T16:18:56.807Z,41.50
2018-06-12T16:21:25.334Z,41.80
2018-06-12T16:23:53.841Z,44.00
2018-06-12T16:26:22.346Z,45.00
2018-06-12T16:28:50.786Z,46.30
2018-06-12T16:31:19.210Z,47.30
2018-06-12T16:33:47.695Z,48.80
2018-06-12T16:36:16.250Z,50.60
2018-06-12T16:38:44.810Z,51.50
2018-06-12T16:41:14.163Z,52.50
2018-06-12T16:43:42.588Z,53.10
2018-06-12T16:46:11.034Z,52.70
2018-06-12T16:48:39.529Z,53.50
2018-06-12T16:51:08.177Z,53.30
2018-06-12T16:53:36.835Z,53.60
2018-06-12T16:56:05.662Z,53.90
2018-06-12T16:58:34.532Z,54.50
2018-06-12T17:01:03.159Z,54.50
2018-06-12T17:03:31.922Z,55.20
2018-06-12T17:06:00.492Z,55.50
2018-06-12T17:08:29.009Z,55.90
2018-06-12T17:10:57.473Z,56.60
2018-06-12T17:13:25.926Z,57.30
2018-06-12T17:15:54.466Z,56.80
2018-06-12T17:18:23.143Z,53.90
2018-06-12T17:20:51.712Z,51.30
2018-06-12T17:23:20.378Z,49.70
2018-06-12T17:25:49.070Z,49.10
2018-06-12T17:28:17.487Z,47.60
2018-06-12T17:30:46.131Z,46.80
2018-06-12T17:33:14.825Z,46.80
2018-06-12T17:35:43.267Z,46.70
2018-06-12T17:38:11.694Z,47.80
2018-06-12T17:40:40.136Z,49.60
2018-06-12T17:43:08.563Z,51.10
2018-06-12T17:45:37.118Z,52.30
2018-06-12T17:48:05.774Z,53.20
2018-06-12T17:50:34.228Z,54.30
2018-06-12T17:53:02.648Z,55.20
2018-06-12T17:55:31.202Z,55.70
2018-06-12T17:57:59.662Z,56.20
2018-06-12T18:00:28.442Z,56.60
2018-06-12T18:02:56.952Z,56.90
2018-06-12T18:06:54.862Z,57.40
2018-06-12T18:09:23.330Z,58.20
2018-06-12T18:11:51.890Z,59.40
2018-06-12T18:14:20.356Z,60.30
2018-06-12T18:16:48.820Z,61.40
2018-06-12T18:19:17.251Z,62.40
2018-06-12T18:21:45.678Z,63.00
2018-06-12T18:24:14.142Z,63.60
2018-06-12T18:26:42.602Z,64.00
2018-06-12T18:29:11.078Z,64.50
2018-06-12T18:31:39.582Z,65.20
2018-06-12T18:34:08.110Z,66.00
2018-06-12T18:36:36.765Z,66.50
2018-06-12T18:39:07.400Z,66.80
2018-06-12T18:41:35.851Z,66.90
2018-06-12T18:44:04.426Z,66.60
2018-06-12T18:46:32.946Z,65.50
2018-06-12T18:49:01.370Z,64.60
2018-06-12T18:51:29.878Z,64.60
2018-06-12T18:53:58.333Z,64.70
2018-06-12T18:56:26.991Z,65.00
2018-06-12T18:58:55.399Z,65.70
2018-06-12T19:01:23.962Z,66.70
2018-06-12T19:03:52.602Z,67.30
2018-06-12T19:06:21.151Z,68.10
2018-06-12T19:08:49.738Z,68.70
2018-06-12T19:11:18.165Z,69.50
2018-06-12T19:13:46.754Z,70.00
2018-06-12T19:16:15.605Z,70.60
2018-06-12T19:18:44.331Z,70.90
2018-06-12T19:23:44.842Z,71.20
2018-06-12T19:26:13.289Z,71.40
2018-06-12T19:31:10.013Z,71.80
2018-06-12T19:33:38.480Z,71.80
2018-06-12T19:36:07.731Z,72.00
2018-06-12T19:41:04.478Z,73.40
2018-06-12T19:43:33.832Z,72.70
2018-06-12T19:46:02.621Z,73.20
2018-06-12T19:48:31.098Z,73.60
2018-06-12T19:50:59.550Z,74.00
2018-06-12T19:55:56.314Z,75.70
2018-06-12T19:58:24.881Z,75.10
2018-06-12T20:00:53.382Z,76.10
2018-06-12T20:03:21.946Z,75.80
2018-06-12T20:05:50.379Z,76.20
2018-06-12T20:08:18.865Z,76.60
2018-06-12T20:10:47.440Z,77.00
2018-06-12T20:13:15.919Z,77.10
2018-06-12T20:18:13.620Z,77.90
2018-06-12T20:20:42.071Z,78.30
2018-06-12T20:23:10.558Z,78.50
2018-06-12T20:25:39.186Z,78.60
2018-06-12T20:28:07.673Z,78.80
2018-06-12T20:30:36.206Z,79.00
2018-06-12T20:33:04.779Z,79.10
2018-06-12T20:35:33.225Z,79.20
2018-06-12T20:38:01.745Z,79.40
2018-06-12T20:40:30.262Z,79.60
2018-06-12T20:42:58.714Z,79.60
2018-06-12T20:45:27.202Z,79.60
2018-06-12T20:47:55.643Z,80.30
2018-06-12T20:50:24.182Z,79.60
2018-06-12T20:52:52.646Z,79.60
2018-06-12T20:55:21.290Z,79.70
2018-06-12T20:57:49.761Z,79.70
2018-06-12T21:00:18.239Z,79.90
2018-06-12T21:02:46.887Z,80.10
2018-06-12T21:05:15.313Z,80.20
2018-06-12T21:07:43.775Z,81.20
2018-06-12T21:10:12.273Z,80.60
2018-06-12T21:12:40.896Z,80.50
2018-06-12T21:15:09.445Z,80.50
2018-06-12T21:17:37.870Z,80.50
2018-06-12T21:20:06.351Z,80.80
2018-06-12T21:22:34.806Z,81.20
2018-06-12T21:25:04.087Z,81.60
2018-06-12T21:27:32.542Z,82.00
2018-06-12T21:30:01.012Z,82.30
2018-06-12T21:32:29.443Z,83.30
2018-06-12T21:34:57.874Z,82.70
2018-06-12T21:37:26.391Z,82.80
2018-06-12T21:42:23.117Z,83.00
2018-06-12T21:44:51.591Z,83.30
2018-06-12T21:47:20.023Z,83.40
2018-06-12T21:49:48.458Z,83.50
2018-06-12T21:52:16.952Z,83.30
2018-06-12T21:54:45.390Z,83.50
2018-06-12T21:57:13.826Z,83.70
2018-06-12T21:59:42.289Z,83.80
2018-06-12T22:02:10.718Z,84.20
2018-06-12T22:04:39.142Z,84.60
2018-06-12T22:07:07.611Z,84.80
2018-06-12T22:09:36.046Z,84.90
2018-06-12T22:12:04.769Z,85.10
2018-06-12T22:14:33.262Z,85.20
2018-06-12T22:17:01.684Z,85.30
2018-06-12T22:19:30.147Z,85.50
2018-06-12T22:21:58.629Z,86.10
2018-06-12T22:24:27.592Z,86.50
2018-06-12T22:26:56.066Z,86.60
2018-06-12T22:29:24.550Z,86.70
2018-06-12T22:31:52.991Z,86.80
2018-06-12T22:34:21.465Z,87.10
2018-06-12T22:36:49.945Z,87.20
2018-06-12T22:39:18.945Z,87.40
2018-06-12T22:41:47.383Z,87.60
2018-06-12T22:44:15.886Z,87.70
2018-06-12T22:46:44.555Z,87.60
2018-06-12T22:49:13.001Z,87.30
2018-06-12T22:51:41.498Z,87.10
2018-06-12T22:54:09.929Z,87.00
2018-06-12T22:56:38.380Z,87.00
2018-06-12T22:59:06.841Z,86.90
2018-06-12T23:01:35.282Z,86.80
2018-06-12T23:04:03.983Z,86.60
2018-06-12T23:06:32.439Z,86.40
2018-06-12T23:09:00.990Z,86.10
2018-06-12T23:11:29.567Z,86.10
2018-06-12T23:13:58.087Z,85.60
2018-06-12T23:16:26.563Z,85.80
2018-06-12T23:18:54.990Z,85.60
2018-06-12T23:21:46.068Z,85.60
2018-06-12T23:24:14.741Z,85.60
2018-06-12T23:26:43.290Z,85.60
2018-06-12T23:29:11.939Z,85.80
2018-06-12T23:31:40.362Z,85.70
2018-06-12T23:34:08.798Z,85.60
2018-06-12T23:36:37.276Z,85.40
2018-06-12T23:39:07.500Z,85.50
2018-06-12T23:41:36.028Z,85.80
2018-06-12T23:44:04.654Z,86.00
2018-06-12T23:46:33.081Z,86.10
2018-06-12T23:49:01.495Z,86.20
2018-06-12T23:51:30.071Z,86.20
2018-06-12T23:53:58.623Z,86.50
2018-06-12T23:56:27.040Z,86.80
